Time;durP1;ratioP1;P1;durP2;ratioP2;P2;SDS_P1;SDS_P2;PMS_P1;PMS_P2;Temp;Humidity;BMP_temperature;BMP_pressure;BME280_temperature;BME280_humidity;BME280_pressure;Samples;Min_cycle;Max_cycle;Signal;HPM_P1;HPM_P2
2023/01/04 00:01:12;;;;;;;24.08;10.88;;;8.50;99.90;;;;;;5014773;28;20050;-82
2023/01/04 00:03:38;;;;;;;27.95;11.10;;;8.40;99.90;;;;;;5013731;28;20478;-82
2023/01/04 00:06:06;;;;;;;28.80;9.45;;;8.40;99.90;;;;;;5013473;28;20056;-82
2023/01/04 00:08:32;;;;;;;23.08;10.43;;;8.40;99.90;;;;;;5014547;28;20077;-82
2023/01/04 00:11:12;;;;;;;25.80;11.43;;;8.40;99.90;;;;;;5013445;28;20482;-81
2023/01/04 00:13:38;;;;;;;27.20;11.40;;;8.30;99.90;;;;;;5013221;28;20060;-82
2023/01/04 00:16:13;;;;;;;23.42;9.32;;;8.40;99.90;;;;;;5014632;28;20042;-82
2023/01/04 00:18:39;;;;;;;24.00;10.18;;;8.40;99.90;;;;;;5013566;28;20478;-82
2023/01/04 00:21:12;;;;;;;26.95;10.40;;;8.40;99.90;;;;;;5013487;28;20104;-82
2023/01/04 00:23:39;;;;;;;27.08;10.57;;;8.30;99.90;;;;;;5013316;28;20120;-81
2023/01/04 00:26:18;;;;;;;32.83;12.52;;;8.20;99.90;;;;;;5013048;28;20038;-82
2023/01/04 00:28:44;;;;;;;22.20;9.77;;;8.30;99.90;;;;;;5013022;28;20103;-82
2023/01/04 00:31:12;;;;;;;29.02;11.30;;;8.20;99.90;;;;;;5013196;28;20371;-81
2023/01/04 00:33:58;;;;;;;29.45;10.90;;;8.20;99.90;;;;;;5014602;28;20088;-82
2023/01/04 00:36:24;;;;;;;25.58;10.90;;;8.30;99.90;;;;;;5013042;28;20120;-82
2023/01/04 00:39:08;;;;;;;20.52;11.15;;;8.30;99.90;;;;;;5014131;28;20049;-83
2023/01/04 00:41:46;;;;;;;22.77;11.15;;;8.30;99.90;;;;;;5013237;28;20112;-83
2023/01/04 00:44:13;;;;;;;23.63;11.15;;;8.30;99.90;;;;;;5012712;28;20045;-83
2023/01/04 00:46:40;;;;;;;24.67;9.45;;;8.20;99.90;;;;;;5013943;28;20429;-83
2023/01/04 00:49:08;;;;;;;24.13;9.18;;;8.20;99.90;;;;;;5012684;28;20149;-84
2023/01/04 00:51:34;;;;;;;23.98;10.63;;;8.20;99.90;;;;;;5014062;28;20057;-83
2023/01/04 00:54:01;;;;;;;27.80;10.07;;;8.10;99.90;;;;;;5012951;28;20504;-83
2023/01/04 00:56:29;;;;;;;26.77;11.48;;;8.30;99.90;;;;;;5012644;28;20084;-83
2023/01/04 00:58:56;;;;;;;22.90;10.80;;;8.20;99.90;;;;;;5012506;28;20045;-83
2023/01/04 01:01:22;;;;;;;25.27;10.50;;;8.30;99.90;;;;;;5012743;28;20401;-84
2023/01/04 01:03:52;;;;;;;19.95;10.48;;;8.30;99.90;;;;;;5012801;28;20053;-83
2023/01/04 01:06:18;;;;;;;19.67;8.77;;;8.20;99.90;;;;;;5013886;28;20042;-83
2023/01/04 01:08:43;;;;;;;24.42;10.20;;;8.40;99.90;;;;;;5012328;28;20050;-84
2023/01/04 01:11:10;;;;;;;23.02;10.80;;;8.40;99.90;;;;;;5012872;28;20053;-83
2023/01/04 01:13:37;;;;;;;28.55;9.32;;;8.40;99.90;;;;;;5012238;28;20058;-83
2023/01/04 01:16:08;;;;;;;19.90;9.32;;;8.30;99.90;;;;;;5012786;28;20104;-84
2023/01/04 01:18:35;;;;;;;20.70;9.25;;;8.40;99.90;;;;;;5012598;28;20571;-83
2023/01/04 01:21:20;;;;;;;17.23;7.43;;;8.40;99.90;;;;;;5012472;28;20049;-84
2023/01/04 01:23:46;;;;;;;20.63;9.10;;;8.40;99.90;;;;;;5012546;28;20103;-83
2023/01/04 01:26:15;;;;;;;28.52;9.95;;;8.30;99.90;;;;;;5012525;28;20103;-84
2023/01/04 01:28:40;;;;;;;21.50;8.35;;;8.40;99.90;;;;;;5013446;28;20046;-83
2023/01/04 01:31:08;;;;;;;19.83;8.65;;;8.40;99.90;;;;;;5013600;28;20049;-83
2023/01/04 01:33:39;;;;;;;19.42;8.23;;;8.30;99.90;;;;;;5013610;28;20103;-84
2023/01/04 01:36:05;;;;;;;27.70;8.23;;;8.40;99.90;;;;;;5012478;28;20065;-84
2023/01/04 01:38:31;;;;;;;19.83;9.15;;;8.30;99.90;;;;;;5013807;28;20046;-83
2023/01/04 01:40:56;;;;;;;17.73;8.27;;;8.30;99.90;;;;;;5013442;28;20045;-83
2023/01/04 01:43:43;;;;;;;16.98;8.10;;;8.20;99.90;;;;;;5012466;28;20065;-83
2023/01/04 01:46:10;;;;;;;18.75;7.47;;;8.40;99.90;;;;;;5012106;28;20482;-83
2023/01/04 01:48:36;;;;;;;19.27;6.97;;;8.40;99.90;;;;;;5013557;28;20080;-83
2023/01/04 01:51:03;;;;;;;18.13;7.90;;;8.30;99.90;;;;;;5016018;28;20033;-83
2023/01/04 01:53:33;;;;;;;14.57;6.80;;;8.20;99.90;;;;;;5017249;28;20049;-83
2023/01/04 01:55:59;;;;;;;18.42;7.05;;;8.20;99.90;;;;;;5015823;28;20445;-83
2023/01/04 01:58:33;;;;;;;19.10;6.78;;;8.30;99.90;;;;;;5015814;28;20426;-83
2023/01/04 02:01:02;;;;;;;17.80;6.90;;;8.30;99.90;;;;;;5015794;28;20104;-83
2023/01/04 02:03:36;;;;;;;13.15;5.75;;;8.40;99.90;;;;;;5015615;28;20084;-83
2023/01/04 02:06:05;;;;;;;18.98;6.30;;;8.30;99.90;;;;;;5015827;28;20042;-83
2023/01/04 02:08:31;;;;;;;12.68;6.50;;;8.30;99.90;;;;;;5015624;28;20053;-82
2023/01/04 02:10:57;;;;;;;19.27;7.03;;;8.30;99.90;;;;;;5015589;28;20053;-83
2023/01/04 02:14:25;;;;;;;13.38;5.28;;;8.40;99.90;;;;;;5015354;28;20041;-84
2023/01/04 02:16:28;;;;;;;10.98;5.93;;;8.40;99.90;;;;;;5015185;28;20054;-83
2023/01/04 02:19:03;;;;;;;10.52;4.93;;;8.40;99.90;;;;;;5015417;28;20046;-83
2023/01/04 02:22:06;;;;;;;11.90;5.30;;;8.30;99.90;;;;;;5016776;28;20046;-82
2023/01/04 02:24:38;;;;;;;7.28;4.20;;;8.40;99.90;;;;;;5015568;28;20486;-83
2023/01/04 02:27:25;;;;;;;13.95;5.38;;;8.40;99.90;;;;;;5015178;28;20042;-83
2023/01/04 02:29:59;;;;;;;8.90;3.20;;;8.50;99.90;;;;;;5015348;28;20129;-83
2023/01/04 02:32:38;;;;;;;7.97;4.30;;;8.40;99.90;;;;;;5015448;28;20049;-84
2023/01/04 02:35:22;;;;;;;10.75;4.18;;;8.50;99.90;;;;;;5016498;28;20042;-83
2023/01/04 02:38:00;;;;;;;10.88;4.07;;;8.50;99.90;;;;;;5015390;28;20547;-84
2023/01/04 02:40:32;;;;;;;10.70;4.15;;;8.50;99.90;;;;;;5014973;28;20049;-83
2023/01/04 02:46:13;;;;;;;9.50;3.85;;;8.60;99.90;;;;;;5014906;28;20056;-83
2023/01/04 02:51:35;;;;;;;8.63;3.50;;;8.50;99.90;;;;;;5014686;28;20084;-83
2023/01/04 02:54:09;;;;;;;6.85;3.55;;;8.50;99.90;;;;;;5014986;28;20513;-83
2023/01/04 02:56:53;;;;;;;9.88;3.80;;;8.40;99.90;;;;;;5015044;28;20050;-83
2023/01/04 02:59:48;;;;;;;5.95;3.10;;;8.50;99.90;;;;;;5014115;28;20046;-83
2023/01/04 03:08:35;;;;;;;10.80;2.88;;;8.60;99.90;;;;;;5014327;28;19921;-83
2023/01/04 03:11:03;;;;;;;8.82;2.70;;;8.50;99.90;;;;;;5014700;28;20041;-83
2023/01/04 03:13:39;;;;;;;10.48;2.92;;;8.70;99.90;;;;;;5014446;28;20120;-83
2023/01/04 03:16:18;;;;;;;8.75;3.03;;;8.60;99.90;;;;;;5014709;28;20053;-83
2023/01/04 03:18:49;;;;;;;9.57;3.00;;;8.70;99.90;;;;;;5014292;28;20092;-83
2023/01/04 03:21:17;;;;;;;13.35;3.30;;;8.70;99.90;;;;;;5014406;28;20053;-83
2023/01/04 03:35:37;;;;;;;9.82;3.28;;;8.70;99.90;;;;;;5014105;28;20045;-83
2023/01/04 03:50:01;;;;;;;8.65;4.00;;;9.00;99.90;;;;;;5013941;28;20041;-82
2023/01/04 03:52:30;;;;;;;8.32;4.40;;;9.10;99.90;;;;;;5014318;28;20128;-82
2023/01/04 03:54:58;;;;;;;12.57;5.78;;;9.10;99.90;;;;;;5013941;28;20046;-82
2023/01/04 03:57:25;;;;;;;12.88;5.03;;;9.20;99.90;;;;;;5013663;28;20045;-82
2023/01/04 04:00:01;;;;;;;12.95;5.40;;;9.20;99.90;;;;;;5013569;28;20049;-82
2023/01/04 04:02:31;;;;;;;14.25;5.28;;;9.10;99.90;;;;;;5013451;28;20129;-82
2023/01/04 04:10:26;;;;;;;14.90;6.97;;;9.20;99.90;;;;;;5013495;28;20057;-82
2023/01/04 04:12:52;;;;;;;18.58;7.80;;;9.10;99.90;;;;;;5013240;28;20034;-82
2023/01/04 04:15:18;;;;;;;21.30;7.38;;;9.20;99.90;;;;;;5013156;28;20046;-81
2023/01/04 04:17:43;;;;;;;25.85;10.18;;;9.20;99.90;;;;;;5013372;28;20478;-81
2023/01/04 04:20:11;;;;;;;30.70;12.35;;;9.30;99.90;;;;;;5013278;28;20053;-82
2023/01/04 04:22:36;;;;;;;30.45;12.90;;;9.40;99.90;;;;;;5013537;28;20081;-81
2023/01/04 04:25:02;;;;;;;36.47;14.43;;;9.30;99.90;;;;;;5013062;28;20085;-81
2023/01/04 04:27:28;;;;;;;36.00;14.27;;;9.50;99.90;;;;;;5013187;28;20042;-81
2023/01/04 04:29:53;;;;;;;35.88;12.73;;;9.60;99.90;;;;;;5012942;28;20078;-81
2023/01/04 04:32:19;;;;;;;36.90;13.63;;;9.60;99.90;;;;;;5013332;28;20084;-81
2023/01/04 04:34:44;;;;;;;26.02;10.55;;;9.70;99.90;;;;;;5014668;28;20412;-81
2023/01/04 04:37:10;;;;;;;37.72;11.15;;;9.70;99.90;;;;;;5013233;28;20041;-81
2023/01/04 04:39:36;;;;;;;36.72;12.18;;;9.80;99.90;;;;;;5012817;28;20058;-82
2023/01/04 04:42:02;;;;;;;34.35;10.80;;;9.90;99.90;;;;;;5013005;28;20058;-82
2023/01/04 04:44:27;;;;;;;26.75;9.55;;;9.80;99.90;;;;;;5012869;28;20077;-82
2023/01/04 04:46:53;;;;;;;32.35;9.60;;;10.00;99.90;;;;;;5012596;28;20508;-82
2023/01/04 04:49:19;;;;;;;25.55;9.80;;;9.90;99.90;;;;;;5012657;28;20553;-82
2023/01/04 04:51:45;;;;;;;25.65;8.88;;;9.80;99.90;;;;;;5012828;28;20088;-82
2023/01/04 04:54:16;;;;;;;34.97;9.75;;;9.90;99.90;;;;;;5013091;28;20064;-82
2023/01/04 04:56:41;;;;;;;27.33;9.75;;;9.90;99.90;;;;;;5014079;28;20077;-82
2023/01/04 04:59:07;;;;;;;34.17;10.40;;;10.00;99.90;;;;;;5013891;28;20524;-81
2023/01/04 05:01:33;;;;;;;24.80;8.63;;;9.90;99.90;;;;;;5014140;28;20042;-81
2023/01/04 05:03:58;;;;;;;28.60;9.77;;;10.00;99.90;;;;;;5013735;28;20406;-82
2023/01/04 05:06:24;;;;;;;24.02;7.22;;;10.00;99.90;;;;;;5013897;28;20128;-81
2023/01/04 05:08:50;;;;;;;20.55;6.20;;;10.00;99.90;;;;;;5013612;28;20448;-81
2023/01/04 05:12:58;;;;;;;24.88;6.50;;;9.90;99.90;;;;;;5013681;28;20077;-81
2023/01/04 05:14:01;;;;;;;24.05;6.60;;;9.90;99.90;;;;;;5013439;28;20061;-81
2023/01/04 05:16:27;;;;;;;30.08;7.65;;;10.10;99.90;;;;;;5013860;28;20058;-82
2023/01/04 05:18:52;;;;;;;22.85;7.40;;;10.00;99.90;;;;;;5012758;28;20060;-81
2023/01/04 05:21:18;;;;;;;18.40;6.40;;;10.00;99.90;;;;;;5013814;28;20046;-81
2023/01/04 05:23:44;;;;;;;18.50;6.60;;;10.00;99.90;;;;;;5015508;28;20042;-81
2023/01/04 05:26:09;;;;;;;18.95;6.03;;;10.10;99.90;;;;;;5016671;28;20485;-81
2023/01/04 05:28:35;;;;;;;19.15;5.07;;;10.10;99.90;;;;;;5017665;28;20049;-82
2023/01/04 05:31:00;;;;;;;13.30;4.35;;;10.10;99.90;;;;;;5016403;28;20045;-81
2023/01/04 05:33:29;;;;;;;15.93;4.03;;;10.20;99.90;;;;;;5016638;28;20053;-81
2023/01/04 05:35:59;;;;;;;15.88;3.80;;;10.10;99.90;;;;;;5016089;28;20397;-81
2023/01/04 05:38:25;;;;;;;12.45;4.47;;;10.20;99.90;;;;;;5016466;28;20045;-82
2023/01/04 05:40:52;;;;;;;11.73;4.30;;;10.20;99.90;;;;;;5017470;28;20046;-82
2023/01/04 05:43:19;;;;;;;18.63;5.30;;;10.20;99.90;;;;;;5016386;28;20409;-82
2023/01/04 05:45:50;;;;;;;12.98;3.83;;;10.20;99.90;;;;;;5016403;28;20104;-81
2023/01/04 05:48:17;;;;;;;10.43;3.13;;;10.10;99.90;;;;;;5016095;28;20053;-82
2023/01/04 05:50:44;;;;;;;12.85;4.20;;;10.20;99.90;;;;;;5017313;28;20116;-82
2023/01/04 05:53:10;;;;;;;10.85;2.95;;;10.30;99.90;;;;;;5017264;28;20072;-82
2023/01/04 05:55:36;;;;;;;15.30;3.80;;;10.30;99.90;;;;;;5017372;28;20100;-82
2023/01/04 05:58:02;;;;;;;16.45;3.95;;;10.30;99.90;;;;;;5017193;28;20045;-82
2023/01/04 06:00:27;;;;;;;11.80;3.65;;;10.20;99.90;;;;;;5017108;28;20041;-82
2023/01/04 06:02:54;;;;;;;15.70;3.72;;;10.20;99.90;;;;;;5016336;28;20054;-82
2023/01/04 06:05:21;;;;;;;13.52;3.83;;;10.20;99.90;;;;;;5016852;28;20528;-82
2023/01/04 06:07:46;;;;;;;14.27;4.65;;;10.20;99.90;;;;;;5016970;28;20042;-82
2023/01/04 06:10:13;;;;;;;16.13;4.15;;;10.20;99.90;;;;;;5015664;28;20409;-82
2023/01/04 06:12:39;;;;;;;19.90;5.38;;;10.10;99.90;;;;;;5016931;28;20081;-82
2023/01/04 06:15:06;;;;;;;13.57;5.07;;;10.10;99.90;;;;;;5015884;28;20046;-82
2023/01/04 06:17:32;;;;;;;24.25;6.05;;;10.20;99.90;;;;;;5016820;28;20041;-82
2023/01/04 06:19:57;;;;;;;19.08;5.28;;;10.30;99.90;;;;;;5015437;28;20128;-82
2023/01/04 06:22:25;;;;;;;18.95;5.30;;;10.20;99.90;;;;;;5015427;28;20125;-83
2023/01/04 06:24:51;;;;;;;20.48;5.82;;;10.30;99.90;;;;;;5016722;28;20052;-83
2023/01/04 06:27:17;;;;;;;25.90;5.40;;;10.30;99.90;;;;;;5016647;28;20042;-83
2023/01/04 06:29:42;;;;;;;16.85;4.95;;;10.20;99.90;;;;;;5015327;28;20497;-83
2023/01/04 06:32:08;;;;;;;18.63;5.90;;;10.30;99.90;;;;;;5015204;28;20054;-82
2023/01/04 06:34:34;;;;;;;30.33;4.78;;;10.20;99.90;;;;;;5016562;28;20081;-83
2023/01/04 06:36:59;;;;;;;19.05;4.35;;;10.30;99.90;;;;;;5015167;28;20077;-83
2023/01/04 06:39:26;;;;;;;16.13;3.47;;;10.30;99.90;;;;;;5016406;28;20050;-83
2023/01/04 06:41:52;;;;;;;16.15;3.50;;;10.30;99.90;;;;;;5015141;28;20100;-84
2023/01/04 06:44:17;;;;;;;18.80;3.78;;;10.30;99.90;;;;;;5015347;28;20045;-83
2023/01/04 06:46:43;;;;;;;24.30;4.90;;;10.30;99.90;;;;;;5016027;28;20366;-82
2023/01/04 06:49:08;;;;;;;22.80;4.53;;;10.40;99.90;;;;;;5016058;28;20049;-83
2023/01/04 06:51:34;;;;;;;27.02;4.40;;;10.30;99.90;;;;;;5016229;28;20042;-83
2023/01/04 06:54:00;;;;;;;17.67;4.45;;;10.30;99.90;;;;;;5016118;28;20143;-83
2023/01/04 06:56:25;;;;;;;31.05;4.57;;;10.40;99.90;;;;;;5014785;28;20044;-83
2023/01/04 06:58:51;;;;;;;34.47;5.40;;;10.40;99.90;;;;;;5016025;28;20041;-83
2023/01/04 07:01:17;;;;;;;22.70;4.60;;;10.40;99.90;;;;;;5014924;28;20445;-83
2023/01/04 07:03:42;;;;;;;31.80;5.32;;;10.40;99.90;;;;;;5015994;28;20082;-84
2023/01/04 07:06:09;;;;;;;45.55;6.13;;;10.40;99.90;;;;;;5015978;28;20042;-84
2023/01/04 07:08:35;;;;;;;44.90;7.25;;;10.40;99.90;;;;;;5014575;28;20046;-84
2023/01/04 07:11:01;;;;;;;29.95;6.05;;;10.40;99.90;;;;;;5014771;28;20413;-84
2023/01/04 07:13:27;;;;;;;25.10;4.90;;;10.40;99.90;;;;;;5015518;28;20046;-84
2023/01/04 07:15:53;;;;;;;40.15;7.10;;;10.30;99.90;;;;;;5015817;28;20053;-85
2023/01/04 07:18:19;;;;;;;32.08;5.15;;;10.50;99.90;;;;;;5015750;28;20042;-84
2023/01/04 07:20:44;;;;;;;31.50;5.03;;;10.40;99.90;;;;;;5014508;28;20129;-84
2023/01/04 07:23:10;;;;;;;41.25;6.78;;;10.40;99.90;;;;;;5015631;28;20125;-85
2023/01/04 07:25:36;;;;;;;40.22;6.18;;;10.30;99.90;;;;;;5014573;28;20081;-85
2023/01/04 07:28:01;;;;;;;31.98;6.07;;;10.40;99.90;;;;;;5014153;28;20541;-85
2023/01/04 07:30:27;;;;;;;30.23;5.72;;;10.40;99.90;;;;;;5014264;28;20072;-85
2023/01/04 07:32:53;;;;;;;40.20;7.22;;;10.30;99.90;;;;;;5014367;28;20046;-85
2023/01/04 07:35:20;;;;;;;39.95;6.18;;;10.40;99.90;;;;;;5014063;28;20053;-85
2023/01/04 07:37:45;;;;;;;42.33;7.47;;;10.40;99.90;;;;;;5014131;28;20044;-85
2023/01/04 07:40:11;;;;;;;28.90;5.45;;;10.40;99.90;;;;;;5014021;28;20492;-86
2023/01/04 07:42:37;;;;;;;39.65;6.70;;;10.30;99.90;;;;;;5013978;28;20092;-85
2023/01/04 07:45:05;;;;;;;40.05;6.18;;;10.40;99.90;;;;;;5013732;28;20053;-86
2023/01/04 07:47:31;;;;;;;32.80;5.15;;;10.40;99.90;;;;;;5014482;28;20041;-85
2023/01/04 07:49:57;;;;;;;36.28;5.97;;;10.40;99.90;;;;;;5013939;28;20068;-85
2023/01/04 07:52:23;;;;;;;42.70;6.10;;;10.40;99.90;;;;;;5013999;28;20072;-86
2023/01/04 07:54:48;;;;;;;42.80;5.85;;;10.40;99.90;;;;;;5015000;28;20081;-86
2023/01/04 07:57:14;;;;;;;30.42;5.22;;;10.40;99.90;;;;;;5013723;28;20037;-86
2023/01/04 07:59:40;;;;;;;41.85;5.47;;;10.30;99.90;;;;;;5013509;28;20481;-85
2023/01/04 08:02:05;;;;;;;39.83;5.57;;;10.40;99.90;;;;;;5013456;28;20048;-85
2023/01/04 08:04:31;;;;;;;34.35;6.75;;;10.50;99.90;;;;;;5013501;28;20049;-86
2023/01/04 08:06:57;;;;;;;29.65;4.72;;;10.50;99.90;;;;;;5013782;28;20052;-85
2023/01/04 08:09:22;;;;;;;36.10;5.43;;;10.50;99.90;;;;;;5014710;28;20046;-85
2023/01/04 08:11:48;;;;;;;34.15;5.20;;;10.40;99.90;;;;;;5013401;28;20042;-85
2023/01/04 08:14:13;;;;;;;31.55;4.55;;;10.50;99.90;;;;;;5013226;28;20125;-86
2023/01/04 08:16:41;;;;;;;31.63;5.40;;;10.40;99.90;;;;;;5013484;28;20421;-86
2023/01/04 08:19:15;;;;;;;36.20;5.22;;;10.50;99.90;;;;;;5013012;28;20347;-84
2023/01/04 08:21:41;;;;;;;24.77;4.50;;;10.50;99.90;;;;;;5013153;28;20038;-85
2023/01/04 08:24:10;;;;;;;28.48;4.35;;;10.40;99.90;;;;;;5012831;28;20045;-85
2023/01/04 08:26:35;;;;;;;18.45;3.67;;;10.50;99.90;;;;;;5013168;28;20049;-85
2023/01/04 08:29:01;;;;;;;21.52;3.70;;;10.40;99.90;;;;;;5011705;28;20046;-85
2023/01/04 08:31:29;;;;;;;25.50;3.58;;;10.50;99.90;;;;;;5013160;28;20100;-85
2023/01/04 08:33:56;;;;;;;21.38;4.38;;;10.40;99.90;;;;;;5012939;28;20053;-85
2023/01/04 08:36:27;;;;;;;27.95;4.68;;;10.50;99.90;;;;;;5012168;28;20042;-85
2023/01/04 08:38:55;;;;;;;30.80;4.53;;;10.50;99.90;;;;;;5011698;28;20056;-85
2023/01/04 08:41:21;;;;;;;29.15;5.32;;;10.50;99.90;;;;;;5011624;28;20056;-85
2023/01/04 08:43:47;;;;;;;37.35;4.90;;;10.40;99.90;;;;;;5012626;28;20037;-85
2023/01/04 08:46:13;;;;;;;26.27;4.32;;;10.50;99.90;;;;;;5012933;28;20065;-85
2023/01/04 08:48:39;;;;;;;32.97;4.88;;;10.40;99.90;;;;;;5013750;28;20085;-85
2023/01/04 08:51:08;;;;;;;35.95;6.18;;;10.50;99.90;;;;;;5012833;28;20370;-85
2023/01/04 08:53:34;;;;;;;44.22;5.50;;;10.40;99.90;;;;;;5012813;28;20375;-85
2023/01/04 08:56:01;;;;;;;36.08;6.35;;;10.60;99.90;;;;;;5014035;28;20053;-85
2023/01/04 08:58:28;;;;;;;37.42;5.97;;;10.50;99.90;;;;;;5011860;28;20050;-86
2023/01/04 09:01:02;;;;;;;34.83;6.93;;;10.60;99.90;;;;;;5013361;28;20053;-86
2023/01/04 09:03:28;;;;;;;43.17;8.40;;;10.60;99.90;;;;;;5013975;28;20038;-85
2023/01/04 09:06:01;;;;;;;47.63;8.35;;;10.50;99.90;;;;;;5017624;28;20044;-85
2023/01/04 09:08:27;;;;;;;;;;;10.70;99.90;;;;;;5033268;28;20520;-85
2023/01/04 09:10:52;;;;;;;55.13;7.55;;;10.70;99.90;;;;;;5032209;28;20384;-85
2023/01/04 09:13:18;;;;;;;53.90;8.05;;;10.60;99.90;;;;;;5031067;28;20452;-86
2023/01/04 09:15:43;;;;;;;51.55;8.82;;;10.60;99.90;;;;;;5020035;28;20081;-86
2023/01/04 09:18:10;;;;;;;54.85;8.93;;;10.60;99.90;;;;;;5031899;28;20084;-86
2023/01/04 09:20:37;;;;;;;70.78;10.40;;;10.60;99.90;;;;;;5032024;28;20053;-87
2023/01/04 09:23:02;;;;;;;68.00;7.85;;;10.60;99.90;;;;;;5031661;28;20053;-85
2023/01/04 09:25:28;;;;;;;69.55;9.00;;;10.60;99.90;;;;;;5033251;28;20049;-89
2023/01/04 09:27:54;;;;;;;57.20;8.90;;;10.60;99.90;;;;;;5031747;28;20059;-88
2023/01/04 09:30:19;;;;;;;67.80;8.18;;;10.80;99.90;;;;;;5031961;28;20046;-88
2023/01/04 09:32:45;;;;;;;64.50;8.75;;;10.70;99.90;;;;;;5031816;28;20045;-89
2023/01/04 09:35:11;;;;;;;59.78;9.52;;;10.80;99.90;;;;;;5031668;28;20045;-83
2023/01/04 09:37:36;;;;;;;66.65;9.98;;;10.80;99.90;;;;;;5033175;28;20049;-85
2023/01/04 09:40:02;;;;;;;54.20;8.05;;;10.80;99.90;;;;;;5031757;28;20056;-85
2023/01/04 09:42:34;;;;;;;69.63;8.93;;;10.90;99.90;;;;;;5031809;28;20046;-85
2023/01/04 09:45:22;;;;;;;70.10;9.37;;;10.80;99.90;;;;;;5031762;28;20049;-85
2023/01/04 09:48:09;;;;;;;64.05;8.65;;;10.90;99.90;;;;;;5031246;28;20069;-87
2023/01/04 09:50:49;;;;;;;77.90;9.73;;;11.00;99.90;;;;;;5042124;28;20070;-87
2023/01/04 09:53:26;;;;;;;58.70;7.63;;;11.00;99.90;;;;;;5012036;28;20046;-89
2023/01/04 09:55:55;;;;;;;59.88;7.97;;;11.00;99.90;;;;;;5024047;28;20491;-89
2023/01/04 09:58:37;;;;;;;59.88;7.93;;;10.90;99.90;;;;;;5031744;28;20069;-89
2023/01/04 10:01:20;;;;;;;67.35;7.97;;;10.90;99.90;;;;;;5031463;28;20136;-88
2023/01/04 10:04:07;;;;;;;76.72;9.23;;;11.00;99.90;;;;;;5031521;28;20062;-88
2023/01/04 10:06:33;;;;;;;66.43;9.40;;;11.00;99.90;;;;;;5031585;28;20050;-88
2023/01/04 10:09:05;;;;;;;69.40;9.82;;;11.10;99.90;;;;;;5032269;28;20127;-89
2023/01/04 10:11:31;;;;;;;40.60;6.85;;;11.10;99.90;;;;;;5035934;28;20059;-84
2023/01/04 10:14:15;;;;;;;68.35;10.30;;;11.10;99.90;;;;;;5035619;28;20049;-89
2023/01/04 10:17:02;;;;;;;61.50;9.85;;;11.20;99.90;;;;;;5034985;28;20053;-88
2023/01/04 10:19:56;;;;;;;57.38;9.50;;;11.10;99.90;;;;;;5035195;28;20037;-88
2023/01/04 10:22:29;;;;;;;;;;;11.10;99.90;;;;;;5035295;28;20045;-86
2023/01/04 10:25:01;;;;;;;49.60;8.60;;;11.20;99.90;;;;;;5015412;28;20357;-88
2023/01/04 10:27:40;;;;;;;49.90;8.43;;;11.10;99.90;;;;;;5015156;28;20050;-88
2023/01/04 10:30:31;;;;;;;69.45;9.35;;;11.20;99.90;;;;;;5015239;28;20046;-87
2023/01/04 10:33:15;;;;;;;65.88;9.25;;;11.30;99.90;;;;;;5014939;28;20038;-89
2023/01/04 10:35:44;;;;;;;50.13;8.05;;;11.20;99.90;;;;;;5014939;28;20100;-87
2023/01/04 10:38:22;;;;;;;47.90;7.78;;;11.20;99.90;;;;;;5017383;28;20066;-88
2023/01/04 10:40:49;;;;;;;42.78;8.52;;;11.20;99.90;;;;;;5015286;28;20473;-88
2023/01/04 10:43:27;;;;;;;60.72;7.95;;;11.40;99.90;;;;;;5014888;28;20130;-87
2023/01/04 10:46:08;;;;;;;61.25;8.38;;;11.20;99.90;;;;;;5015014;28;20050;-88
2023/01/04 10:48:59;;;;;;;66.82;8.93;;;11.30;99.90;;;;;;5014554;28;20052;-87
2023/01/04 10:51:44;;;;;;;65.93;9.38;;;11.30;99.90;;;;;;5014823;28;20050;-87
2023/01/04 10:54:48;;;;;;;58.90;8.52;;;11.40;99.90;;;;;;5014494;28;20486;-86
2023/01/04 10:57:24;;;;;;;64.07;8.13;;;11.30;99.90;;;;;;4920036;29;20047;-85
2023/01/04 11:00:05;;;;;;;62.45;8.38;;;11.40;99.90;;;;;;4920504;29;20437;-88
2023/01/04 11:02:43;;;;;;;68.82;7.47;;;11.40;99.90;;;;;;4980047;28;20045;-86
2023/01/04 11:05:41;;;;;;;55.30;11.13;;;11.40;99.90;;;;;;5014474;28;20474;-85
2023/01/04 11:08:17;;;;;;;71.45;11.02;;;11.50;99.90;;;;;;4996314;28;20498;-86
2023/01/04 11:10:49;;;;;;;65.93;9.27;;;11.40;99.90;;;;;;5031596;28;20106;-85
2023/01/04 11:13:15;;;;;;;49.63;7.93;;;11.50;99.90;;;;;;5034379;28;20045;-86
2023/01/04 11:15:41;;;;;;;48.45;7.43;;;11.40;99.90;;;;;;5034091;28;20099;-87
2023/01/04 11:18:10;;;;;;;54.17;6.63;;;11.60;99.90;;;;;;5024234;28;20049;-86
2023/01/04 11:20:36;;;;;;;57.58;7.68;;;11.40;99.90;;;;;;5013882;28;20046;-86
2023/01/04 11:23:19;;;;;;;55.20;7.97;;;11.50;99.90;;;;;;5014105;28;20582;-88
2023/01/04 11:25:52;;;;;;;51.05;6.82;;;11.40;99.90;;;;;;5014382;28;20053;-86
2023/01/04 11:28:24;;;;;;;58.83;6.88;;;11.50;99.90;;;;;;5013994;28;20058;-87
2023/01/04 11:31:00;;;;;;;53.33;7.28;;;11.40;99.90;;;;;;5014637;28;20406;-87
2023/01/04 11:33:26;;;;;;;46.90;6.78;;;11.50;99.90;;;;;;5014072;28;20116;-88
2023/01/04 11:35:58;;;;;;;42.60;6.30;;;11.40;99.90;;;;;;5014453;28;20485;-87
2023/01/04 11:38:26;;;;;;;48.78;7.60;;;11.50;99.90;;;;;;5014833;28;20129;-89
2023/01/04 11:41:15;;;;;;;69.75;7.28;;;11.50;99.90;;;;;;5015383;28;20049;-87
2023/01/04 11:43:59;;;;;;;62.20;9.27;;;11.60;99.90;;;;;;5014167;28;20046;-87
2023/01/04 11:46:26;;;;;;;67.25;8.13;;;11.60;99.90;;;;;;5011341;28;20046;-84
2023/01/04 11:48:52;;;;;;;62.78;9.27;;;11.50;99.90;;;;;;5012942;28;20132;-84
2023/01/04 11:51:24;;;;;;;76.97;10.02;;;11.50;99.90;;;;;;5013140;28;20050;-85
2023/01/04 11:54:25;;;;;;;44.90;7.18;;;11.70;99.90;;;;;;5013491;28;20132;-87
2023/01/04 11:57:11;;;;;;;72.60;8.70;;;11.70;99.90;;;;;;5000648;28;20391;-87
2023/01/04 11:59:37;;;;;;;71.88;10.27;;;11.60;99.90;;;;;;5013193;28;20045;-86
2023/01/04 12:02:20;;;;;;;48.20;7.10;;;11.60;99.90;;;;;;5013170;28;20049;-86
2023/01/04 12:04:47;;;;;;;53.80;7.03;;;11.50;99.90;;;;;;5013374;28;20061;-85
2023/01/04 12:07:28;;;;;;;49.65;9.07;;;11.60;99.90;;;;;;5011833;28;20050;-86
2023/01/04 12:09:54;;;;;;;58.40;7.65;;;11.70;99.90;;;;;;5022553;28;20049;-87
2023/01/04 12:12:20;;;;;;;39.50;8.30;;;11.60;99.90;;;;;;5032944;28;20375;-87
2023/01/04 12:14:50;;;;;;;48.15;8.18;;;11.50;99.90;;;;;;5032324;28;20547;-88
2023/01/04 12:17:22;;;;;;;46.30;6.18;;;11.50;99.90;;;;;;5032497;28;20496;-86
2023/01/04 12:19:53;;;;;;;46.03;7.97;;;11.60;99.90;;;;;;5032608;28;20060;-89
2023/01/04 12:22:24;;;;;;;32.13;5.63;;;11.50;99.90;;;;;;5033028;28;20084;-83
2023/01/04 12:24:52;;;;;;;54.60;7.38;;;11.50;99.90;;;;;;5032281;28;20033;-85
2023/01/04 12:27:18;;;;;;;55.67;7.50;;;11.60;99.90;;;;;;5033253;28;20048;-90
2023/01/04 12:29:51;;;;;;;43.15;8.73;;;11.60;99.90;;;;;;5032258;28;20045;-88
2023/01/04 12:32:17;;;;;;;43.65;6.93;;;11.40;99.90;;;;;;5031955;28;20524;-84
2023/01/04 12:34:45;;;;;;;41.58;6.85;;;11.50;99.90;;;;;;5031805;28;20132;-86
2023/01/04 12:37:36;;;;;;;44.42;6.90;;;11.50;99.90;;;;;;5032587;28;20125;-84
2023/01/04 12:40:22;;;;;;;41.83;7.00;;;11.60;99.90;;;;;;5032384;28;20037;-83
2023/01/04 12:43:14;;;;;;;48.90;5.93;;;11.60;99.90;;;;;;5032284;28;20053;-83
2023/01/04 12:45:40;;;;;;;42.28;5.25;;;11.40;99.90;;;;;;5032355;28;20064;-81
2023/01/04 12:51:18;;;;;;;51.70;7.53;;;11.60;99.90;;;;;;5031974;28;20420;-85
2023/01/04 12:53:52;;;;;;;31.23;5.53;;;11.50;99.90;;;;;;5032321;28;20380;-81
2023/01/04 12:56:18;;;;;;;53.63;5.28;;;11.60;99.90;;;;;;5032193;28;20053;-82
2023/01/04 12:59:08;;;;;;;37.70;5.72;;;11.50;99.90;;;;;;5031829;28;20045;-82
2023/01/04 13:01:34;;;;;;;36.65;6.28;;;11.40;99.90;;;;;;5032009;28;20118;-82
2023/01/04 13:04:22;;;;;;;44.28;6.63;;;11.50;99.90;;;;;;5032302;28;20121;-82
2023/01/04 13:06:48;;;;;;;34.80;5.85;;;11.50;99.90;;;;;;5033183;28;20058;-81
2023/01/04 13:09:21;;;;;;;37.22;6.80;;;11.40;99.90;;;;;;5033108;28;20098;-82
2023/01/04 13:12:04;;;;;;;40.78;5.28;;;11.50;99.90;;;;;;5031795;28;20049;-82
2023/01/04 13:14:52;;;;;;;55.83;5.15;;;11.50;99.90;;;;;;5031772;28;20054;-83
2023/01/04 13:17:20;;;;;;;32.58;5.18;;;11.40;99.90;;;;;;5031865;28;20084;-83
2023/01/04 13:19:47;;;;;;;42.38;5.95;;;11.30;99.90;;;;;;5032081;28;20048;-85
2023/01/04 13:22:32;;;;;;;35.75;5.90;;;11.30;99.90;;;;;;5031595;28;20053;-82
2023/01/04 13:25:01;;;;;;;42.13;5.47;;;11.40;99.90;;;;;;5031947;28;20053;-80
2023/01/04 13:27:27;;;;;;;39.70;5.32;;;11.40;99.90;;;;;;5031699;28;20050;-81
2023/01/04 13:29:53;;;;;;;49.88;6.32;;;11.40;99.90;;;;;;5031584;28;20049;-85
2023/01/04 13:32:30;;;;;;;47.30;6.72;;;11.30;99.90;;;;;;5032130;28;20171;-81
2023/01/04 13:35:01;;;;;;;47.22;6.65;;;11.20;99.90;;;;;;5031697;28;20049;-83
2023/01/04 13:37:26;;;;;;;42.38;6.95;;;11.40;99.90;;;;;;5031750;28;20467;-81
2023/01/04 13:40:18;;;;;;;44.38;7.18;;;11.20;99.90;;;;;;5031790;28;20057;-83
2023/01/04 13:42:48;;;;;;;50.60;8.45;;;11.30;99.90;;;;;;5031794;28;20045;-83